Time;durP1;ratioP1;P1;durP2;ratioP2;P2;SDS_P1;SDS_P2;PMS_P1;PMS_P2;Temp;Humidity;BMP_temperature;BMP_pressure;BME280_temperature;BME280_humidity;BME280_pressure;Samples;Min_cycle;Max_cycle;Signal;HPM_P1;HPM_P2
2023/01/31 00:01:10;;;;;;;11.03;5.97;;;;;;;5.58;61.37;98467.00;8447334;28;20232;-67
2023/01/31 00:05:12;;;;;;;9.53;5.40;;;;;;;5.77;60.61;98462.41;8447265;28;20231;-67
2023/01/31 00:09:15;;;;;;;9.90;5.37;;;;;;;5.62;61.35;98458.38;8446797;28;20231;-67
2023/01/31 00:13:20;;;;;;;10.17;5.13;;;;;;;5.58;61.23;98463.56;8446872;28;20531;-67
2023/01/31 00:17:22;;;;;;;12.80;5.90;;;;;;;5.62;61.14;98460.09;8446982;28;20242;-66
2023/01/31 00:21:27;;;;;;;11.17;5.27;;;;;;;5.68;60.97;98458.25;8447477;28;20234;-67
2023/01/31 00:25:30;;;;;;;10.30;5.50;;;;;;;5.74;60.69;98459.03;8447418;28;20239;-67
2023/01/31 00:29:34;;;;;;;12.43;5.47;;;;;;;5.49;61.77;98472.28;8447507;28;20402;-67
2023/01/31 00:33:39;;;;;;;8.63;5.33;;;;;;;5.74;60.67;98474.47;8447219;28;20261;-67
2023/01/31 00:37:41;;;;;;;9.07;5.33;;;;;;;5.52;61.46;98486.78;8446727;28;20231;-67
2023/01/31 00:41:44;;;;;;;11.53;5.80;;;;;;;5.63;61.57;98488.31;8446928;28;20228;-67
2023/01/31 00:45:48;;;;;;;10.07;5.20;;;;;;;5.71;60.51;98492.50;8446719;28;20253;-67
2023/01/31 00:49:51;;;;;;;15.90;5.63;;;;;;;5.43;60.65;98477.53;8446857;28;20519;-67
2023/01/31 00:53:54;;;;;;;10.60;5.50;;;;;;;5.58;61.00;98499.53;8446534;28;20310;-67
2023/01/31 00:57:57;;;;;;;12.87;5.60;;;;;;;5.62;60.93;98496.91;8446547;28;20250;-66
2023/01/31 01:02:01;;;;;;;12.53;5.50;;;;;;;5.65;61.08;98493.44;8446298;28;20231;-67
2023/01/31 01:06:05;;;;;;;8.27;5.20;;;;;;;5.73;60.76;98499.31;8446224;28;20486;-67
2023/01/31 01:10:09;;;;;;;13.27;5.90;;;;;;;5.74;60.87;98497.59;8445962;28;20504;-67
2023/01/31 01:14:12;;;;;;;10.57;5.40;;;;;;;5.86;60.39;98495.66;8446031;28;20232;-67
2023/01/31 01:18:16;;;;;;;11.93;5.63;;;;;;;5.62;60.82;98496.91;8445939;28;20223;-67
2023/01/31 01:22:19;;;;;;;11.97;5.83;;;;;;;5.59;61.23;98493.53;8445591;28;20230;-66
2023/01/31 01:26:25;;;;;;;12.53;5.70;;;;;;;5.57;61.39;98491.00;8445461;28;20226;-67
2023/01/31 01:30:28;;;;;;;11.40;5.27;;;;;;;5.57;61.52;98508.13;8444826;28;20510;-67
2023/01/31 01:34:33;;;;;;;11.30;5.37;;;;;;;5.78;60.71;98512.09;8445393;28;20231;-67
2023/01/31 01:38:37;;;;;;;11.13;5.70;;;;;;;5.79;60.54;98506.91;8445139;28;20231;-67
2023/01/31 01:42:40;;;;;;;8.20;5.70;;;;;;;5.71;60.89;98505.34;8445166;28;20333;-67
2023/01/31 01:46:44;;;;;;;9.93;5.77;;;;;;;5.77;60.54;98508.66;8444691;28;20589;-67
2023/01/31 01:50:49;;;;;;;10.77;6.03;;;;;;;5.76;60.85;98506.13;8444868;28;20563;-67
2023/01/31 01:54:56;;;;;;;12.63;5.57;;;;;;;5.76;60.75;98516.41;8444827;28;20503;-67
2023/01/31 01:59:02;;;;;;;11.00;5.77;;;;;;;5.74;60.48;98513.00;8444919;28;20227;-67
2023/01/31 02:03:07;;;;;;;12.50;5.63;;;;;;;5.67;61.02;98519.94;8444733;28;20290;-67
2023/01/31 02:07:11;;;;;;;10.87;6.10;;;;;;;5.53;61.88;98527.03;8444674;28;20235;-67
2023/01/31 02:11:17;;;;;;;11.73;5.97;;;;;;;5.71;61.00;98534.44;8444648;28;20228;-66
2023/01/31 02:15:21;;;;;;;13.07;6.30;;;;;;;5.72;61.31;98533.59;8444719;28;20220;-67
2023/01/31 02:19:31;;;;;;;14.40;6.40;;;;;;;5.83;60.52;98528.28;8444515;28;20234;-67
2023/01/31 02:23:54;;;;;;;11.20;6.00;;;;;;;5.78;60.70;98530.06;8444393;28;20531;-67
2023/01/31 02:28:28;;;;;;;12.43;5.87;;;;;;;5.82;60.42;98529.16;8444151;28;20394;-67
2023/01/31 02:32:49;;;;;;;10.90;5.53;;;;;;;5.86;60.89;98523.06;8444283;28;20237;-67
2023/01/31 02:37:01;;;;;;;10.40;5.33;;;;;;;5.60;60.76;98536.34;8443963;28;20222;-67
2023/01/31 02:41:13;;;;;;;14.03;6.60;;;;;;;5.51;61.55;98534.75;8448289;28;20255;-67
2023/01/31 02:45:22;;;;;;;11.27;5.80;;;;;;;5.95;60.69;98550.38;8450762;28;20230;-67
2023/01/31 02:49:38;;;;;;;14.07;6.53;;;;;;;5.70;61.59;98560.19;8450633;28;20531;-67
2023/01/31 02:53:44;;;;;;;13.73;6.37;;;;;;;5.75;60.93;98560.94;8450448;28;20220;-67
2023/01/31 02:57:49;;;;;;;11.47;6.03;;;;;;;5.46;61.97;98557.97;8450055;28;20229;-67
2023/01/31 03:01:56;;;;;;;11.50;5.97;;;;;;;5.56;61.50;98555.22;8450292;28;20461;-67
2023/01/31 03:06:58;;;;;;;10.47;5.90;;;;;;;5.62;61.05;98556.00;8450000;28;20239;-66
2023/01/31 03:11:04;;;;;;;10.50;5.37;;;;;;;5.74;60.97;98549.00;8449640;28;20261;-67
2023/01/31 03:15:20;;;;;;;11.50;5.50;;;;;;;5.38;61.45;98558.94;8449758;28;20231;-67
2023/01/31 03:19:27;;;;;;;13.30;5.30;;;;;;;5.47;60.91;98575.06;8449734;28;20255;-67
2023/01/31 03:23:34;;;;;;;12.00;5.47;;;;;;;5.65;60.57;98591.94;8449606;28;20452;-67
2023/01/31 03:27:39;;;;;;;10.63;5.57;;;;;;;5.73;60.54;98593.53;8449484;28;20515;-67
2023/01/31 03:31:44;;;;;;;11.50;5.57;;;;;;;5.27;61.38;98590.75;8448668;28;20227;-67
2023/01/31 03:35:53;;;;;;;9.80;5.80;;;;;;;5.41;61.32;98600.00;8449122;28;20515;-67
2023/01/31 03:40:00;;;;;;;16.00;5.57;;;;;;;5.20;62.40;98593.44;8448826;28;20227;-67
2023/01/31 03:44:07;;;;;;;11.53;5.53;;;;;;;5.12;62.27;98600.34;8448934;28;20325;-67
2023/01/31 03:48:13;;;;;;;12.00;5.87;;;;;;;5.38;61.47;98603.44;8448755;28;20420;-67
2023/01/31 03:52:22;;;;;;;12.83;5.53;;;;;;;5.70;60.83;98607.28;8447640;28;20343;-67
2023/01/31 03:56:29;;;;;;;13.83;5.50;;;;;;;5.53;60.94;98610.09;8448424;28;20523;-67
2023/01/31 04:00:34;;;;;;;12.30;5.30;;;;;;;5.67;60.78;98618.47;8448362;28;20234;-67
2023/01/31 04:04:40;;;;;;;12.40;5.73;;;;;;;5.70;60.53;98617.56;8448371;28;20294;-67
2023/01/31 04:08:43;;;;;;;12.30;5.17;;;;;;;5.65;60.50;98630.50;8447129;28;20242;-67
2023/01/31 04:12:47;;;;;;;10.03;4.80;;;;;;;5.58;60.75;98635.72;8448028;28;20532;-67
2023/01/31 04:16:50;;;;;;;11.47;5.10;;;;;;;5.70;60.09;98637.28;8447945;28;20231;-67
2023/01/31 04:20:52;;;;;;;12.80;5.20;;;;;;;5.65;61.08;98642.47;8447536;28;20242;-67
2023/01/31 04:24:55;;;;;;;13.60;5.50;;;;;;;5.72;60.82;98648.41;8447216;28;20231;-67
2023/01/31 04:28:59;;;;;;;10.77;5.03;;;;;;;5.71;60.44;98650.09;8447328;28;20230;-67
2023/01/31 04:33:02;;;;;;;14.90;5.43;;;;;;;5.93;60.46;98648.06;8447159;28;20238;-67
2023/01/31 04:37:05;;;;;;;9.73;4.83;;;;;;;5.80;60.34;98664.56;8447139;28;20226;-67
2023/01/31 04:41:08;;;;;;;11.87;5.30;;;;;;;6.02;60.31;98657.44;8446765;28;20231;-67
2023/01/31 04:45:12;;;;;;;9.93;5.30;;;;;;;5.82;60.92;98652.53;8447021;28;20429;-67
2023/01/31 04:49:15;;;;;;;10.33;5.30;;;;;;;6.08;59.91;98654.75;8446919;28;20227;-67
2023/01/31 04:53:20;;;;;;;10.97;4.90;;;;;;;6.10;60.48;98649.59;8446552;28;20542;-66
2023/01/31 04:57:23;;;;;;;15.33;5.87;;;;;;;6.04;59.69;98638.50;8446714;28;20236;-67
2023/01/31 05:01:28;;;;;;;13.17;5.60;;;;;;;5.93;60.56;98640.38;8446358;28;20239;-66
2023/01/31 05:05:30;;;;;;;15.23;6.20;;;;;;;6.00;59.87;98631.72;8446344;28;20235;-67
2023/01/31 05:09:37;;;;;;;15.10;5.60;;;;;;;6.06;59.61;98641.91;8446199;28;20544;-67
2023/01/31 05:13:41;;;;;;;12.97;5.23;;;;;;;5.82;59.27;98603.69;8446212;28;20231;-67
2023/01/31 05:17:47;;;;;;;13.23;5.13;;;;;;;6.23;59.08;98638.25;8445220;28;20227;-67
2023/01/31 05:21:57;;;;;;;12.73;5.73;;;;;;;6.27;59.23;98632.16;8445530;28;20235;-67
2023/01/31 05:26:00;;;;;;;14.93;6.47;;;;;;;6.28;58.60;98612.44;8445641;28;20294;-67
2023/01/31 05:30:05;;;;;;;12.57;5.47;;;;;;;6.40;58.42;98607.94;8445578;28;20223;-67
2023/01/31 05:34:13;;;;;;;13.77;5.23;;;;;;;6.14;58.64;98597.22;8445111;28;20239;-67
2023/01/31 05:38:16;;;;;;;10.83;5.13;;;;;;;6.11;59.21;98602.41;8445021;28;20231;-66
2023/01/31 05:42:19;;;;;;;14.60;5.37;;;;;;;6.07;58.92;98615.34;8445251;28;20227;-67
2023/01/31 05:46:22;;;;;;;13.67;4.93;;;;;;;6.26;58.08;98622.75;8445151;28;20223;-67
2023/01/31 05:50:26;;;;;;;10.27;4.83;;;;;;;6.13;59.30;98624.69;8444774;28;20234;-67
2023/01/31 05:54:29;;;;;;;13.47;5.40;;;;;;;6.02;59.23;98632.56;8444763;28;20414;-67
2023/01/31 05:58:31;;;;;;;16.57;5.57;;;;;;;6.11;59.25;98631.56;8445182;28;20230;-67
2023/01/31 06:02:34;;;;;;;12.53;5.27;;;;;;;6.12;59.03;98625.53;8444892;28;20233;-67
2023/01/31 06:06:39;;;;;;;15.27;5.07;;;;;;;6.04;58.66;98617.94;8444644;28;20227;-67
2023/01/31 06:10:42;;;;;;;12.90;5.07;;;;;;;6.10;58.96;98627.28;8444380;28;20228;-67
2023/01/31 06:14:46;;;;;;;11.37;5.20;;;;;;;6.06;58.79;98620.50;8447025;28;20219;-67
2023/01/31 06:18:49;;;;;;;10.77;4.87;;;;;;;6.29;58.63;98627.00;8448219;28;20298;-67
2023/01/31 06:22:54;;;;;;;13.67;5.77;;;;;;;6.19;58.35;98634.03;8450047;28;20227;-67
2023/01/31 06:26:57;;;;;;;13.67;4.90;;;;;;;6.05;58.95;98629.06;8451591;28;20238;-67
2023/01/31 06:30:59;;;;;;;13.97;5.50;;;;;;;6.25;58.20;98645.03;8451042;28;20227;-68
2023/01/31 06:35:02;;;;;;;13.80;5.73;;;;;;;6.22;58.17;98641.66;8450647;28;20238;-67
2023/01/31 06:39:07;;;;;;;13.17;4.77;;;;;;;6.20;57.96;98651.97;8450699;28;20234;-67
2023/01/31 06:43:09;;;;;;;14.13;4.97;;;;;;;6.10;58.26;98636.72;8450726;28;20566;-67
2023/01/31 06:47:13;;;;;;;14.03;5.50;;;;;;;6.16;57.72;98642.63;8450664;28;20397;-67
2023/01/31 06:51:16;;;;;;;13.07;5.10;;;;;;;6.13;58.19;98647.81;8450153;28;20534;-67
2023/01/31 06:55:21;;;;;;;12.43;5.13;;;;;;;6.17;58.18;98644.31;8450270;28;20238;-67
2023/01/31 06:59:24;;;;;;;14.27;5.50;;;;;;;6.09;58.11;98645.31;8450463;28;20578;-67
2023/01/31 07:03:27;;;;;;;13.13;5.47;;;;;;;5.91;58.74;98642.13;8450063;28;20424;-67
2023/01/31 07:07:30;;;;;;;12.67;4.97;;;;;;;5.91;58.64;98657.53;8449798;28;20231;-67
2023/01/31 07:11:34;;;;;;;12.23;4.80;;;;;;;5.77;58.51;98654.31;8449823;28;20227;-67
2023/01/31 07:15:37;;;;;;;10.07;5.10;;;;;;;5.96;58.25;98658.38;8449838;28;20227;-67
2023/01/31 07:19:39;;;;;;;14.07;5.43;;;;;;;5.88;58.40;98648.16;8449757;28;20408;-67
2023/01/31 07:23:44;;;;;;;12.80;5.63;;;;;;;5.94;58.05;98646.34;8448842;28;20428;-67
2023/01/31 07:27:48;;;;;;;10.07;5.10;;;;;;;6.26;57.33;98651.03;8449293;28;20230;-67
2023/01/31 07:31:51;;;;;;;9.93;4.93;;;;;;;5.98;57.59;98650.63;8449044;28;20231;-67
2023/01/31 07:35:54;;;;;;;11.80;4.97;;;;;;;5.85;57.42;98621.66;8449170;28;20548;-68
2023/01/31 07:39:56;;;;;;;13.53;5.27;;;;;;;6.15;57.44;98650.34;8448552;28;20467;-67
2023/01/31 07:44:00;;;;;;;14.33;5.07;;;;;;;6.15;57.19;98655.50;8448699;28;20238;-67
2023/01/31 07:48:05;;;;;;;13.87;5.13;;;;;;;6.22;56.75;98659.69;8448512;28;20231;-67
2023/01/31 07:52:08;;;;;;;14.53;5.30;;;;;;;5.98;57.42;98664.34;8448373;28;20233;-67
2023/01/31 07:56:13;;;;;;;14.20;5.63;;;;;;;6.07;56.68;98679.63;8448280;28;20227;-67
2023/01/31 08:04:38;;;;;;;14.13;5.50;;;;;;;6.10;56.87;98681.28;8448138;28;20227;-67
2023/01/31 08:08:42;;;;;;;10.53;5.73;;;;;;;5.95;57.32;98682.34;8447475;28;20265;-67
2023/01/31 08:12:45;;;;;;;11.57;5.30;;;;;;;6.18;55.73;98681.19;8447809;28;20230;-67
2023/01/31 08:16:53;;;;;;;12.70;5.20;;;;;;;6.13;56.14;98682.97;8447874;28;20287;-67
2023/01/31 08:20:56;;;;;;;12.03;5.53;;;;;;;6.79;54.58;98663.88;8447536;28;20264;-67
2023/01/31 08:24:59;;;;;;;13.13;5.63;;;;;;;6.93;54.11;98700.53;8447501;28;20238;-68
2023/01/31 08:29:02;;;;;;;9.77;5.20;;;;;;;9.14;49.78;98697.34;8447327;28;20235;-67
2023/01/31 08:33:06;;;;;;;12.40;5.30;;;;;;;9.11;47.98;98694.00;8447242;28;20239;-67
2023/01/31 08:37:08;;;;;;;10.57;4.70;;;;;;;7.77;50.18;98594.03;8446937;28;20626;-67
2023/01/31 08:41:12;;;;;;;11.63;5.00;;;;;;;8.16;51.01;98712.66;8447023;28;20242;-68
2023/01/31 08:45:14;;;;;;;12.20;4.97;;;;;;;7.83;51.11;98705.63;8447265;28;20239;-68
2023/01/31 08:49:19;;;;;;;12.30;4.67;;;;;;;7.61;51.72;98697.47;8447023;28;20219;-67
2023/01/31 08:53:22;;;;;;;10.67;4.80;;;;;;;6.87;52.67;98695.47;8446912;28;20226;-67
2023/01/31 08:57:25;;;;;;;11.47;5.23;;;;;;;7.18;51.84;98692.34;8446868;28;20223;-67
2023/01/31 09:01:27;;;;;;;11.20;5.40;;;;;;;7.24;52.44;98694.81;8446430;28;20219;-67
2023/01/31 09:05:32;;;;;;;11.10;5.70;;;;;;;6.90;52.65;98697.16;8446080;28;20234;-67
2023/01/31 09:09:36;;;;;;;13.30;5.63;;;;;;;6.46;53.71;98684.16;8446237;28;20229;-67
2023/01/31 09:13:39;;;;;;;10.97;5.67;;;;;;;6.88;53.17;98696.34;8446064;28;20232;-67
2023/01/31 09:17:42;;;;;;;10.50;5.43;;;;;;;6.88;53.18;98699.75;8445692;28;20220;-68
2023/01/31 09:21:46;;;;;;;11.73;4.90;;;;;;;6.98;52.94;98698.69;8445705;28;20226;-67
2023/01/31 09:25:53;;;;;;;11.30;5.80;;;;;;;7.08;53.14;98690.81;8445702;28;20396;-67
2023/01/31 09:29:56;;;;;;;11.43;5.67;;;;;;;6.84;53.73;98691.22;8445680;28;20232;-67
2023/01/31 09:33:59;;;;;;;13.83;5.83;;;;;;;6.82;53.89;98685.25;8445559;28;20231;-67
2023/01/31 09:38:03;;;;;;;11.53;5.77;;;;;;;7.31;52.52;98680.06;8445340;28;20227;-67
2023/01/31 09:42:13;;;;;;;11.40;5.70;;;;;;;7.30;52.57;98683.53;8445281;28;20227;-67
2023/01/31 09:46:19;;;;;;;13.33;5.30;;;;;;;7.41;52.49;98700.47;8445446;28;20532;-67
2023/01/31 09:50:23;;;;;;;11.50;4.97;;;;;;;7.18;52.83;98685.47;8444428;28;20224;-68
2023/01/31 09:54:31;;;;;;;10.90;3.87;;;;;;;9.83;74.81;98704.91;8445138;28;20234;-67
2023/01/31 09:58:49;;;;;;;14.43;6.87;;;;;;;10.18;56.30;98697.81;8444594;28;20429;-68
2023/01/31 10:03:17;;;;;;;12.07;6.03;;;;;;;10.07;51.75;98680.03;8444545;28;20230;-68
2023/01/31 10:07:25;;;;;;;10.67;5.20;;;;;;;8.54;48.64;98629.16;8444457;28;20559;-68
2023/01/31 10:11:33;;;;;;;11.60;5.50;;;;;;;8.58;50.22;98673.84;8444742;28;20224;-68
2023/01/31 10:15:42;;;;;;;10.33;5.30;;;;;;;8.31;50.07;98665.00;8444616;28;20303;-67
2023/01/31 10:19:49;;;;;;;12.07;5.43;;;;;;;8.06;50.25;98657.00;8443762;28;20219;-67
2023/01/31 10:23:56;;;;;;;13.93;5.77;;;;;;;7.98;50.64;98652.84;8444586;28;20256;-67
2023/01/31 10:28:04;;;;;;;11.63;5.10;;;;;;;8.16;50.09;98650.72;8444346;28;20228;-67
2023/01/31 10:32:13;;;;;;;10.47;4.70;;;;;;;8.00;49.89;98639.94;8444213;28;20235;-67
2023/01/31 10:36:25;;;;;;;9.83;4.83;;;;;;;7.99;49.87;98648.53;8444235;28;20309;-67
2023/01/31 10:40:33;;;;;;;10.53;4.80;;;;;;;7.73;50.23;98657.72;8444336;28;20239;-67
2023/01/31 10:44:52;;;;;;;10.30;4.80;;;;;;;7.81;49.43;98618.88;8443918;28;20227;-66
2023/01/31 10:48:55;;;;;;;11.20;4.90;;;;;;;8.23;49.49;98611.84;8443753;28;20326;-66
2023/01/31 10:53:10;;;;;;;12.53;4.43;;;;;;;7.90;49.59;98607.47;8443880;28;20300;-66
2023/01/31 10:57:13;;;;;;;9.63;4.73;;;;;;;7.84;50.17;98605.91;8444217;28;20228;-66
2023/01/31 11:01:20;;;;;;;7.93;3.77;;;;;;;7.81;48.82;98624.03;8446702;28;20227;-67
2023/01/31 11:05:24;;;;;;;12.83;4.20;;;;;;;7.71;49.24;98610.50;8449970;28;20223;-67
2023/01/31 11:09:30;;;;;;;9.20;4.10;;;;;;;7.81;49.53;98611.13;8450256;28;20227;-67
2023/01/31 11:13:33;;;;;;;10.87;5.23;;;;;;;7.97;49.07;98607.31;8449697;28;20240;-67
2023/01/31 11:17:37;;;;;;;11.13;4.73;;;;;;;8.23;48.22;98592.94;8449918;28;20242;-67
2023/01/31 11:21:40;;;;;;;9.70;5.70;;;;;;;8.39;48.76;98586.50;8449315;28;20311;-67
2023/01/31 11:25:47;;;;;;;14.03;6.43;;;;;;;8.08;48.56;98578.69;8449161;28;20220;-67
2023/01/31 11:29:53;;;;;;;10.67;6.37;;;;;;;8.09;49.40;98558.88;8449431;28;20227;-67
2023/01/31 11:33:58;;;;;;;10.90;5.97;;;;;;;8.55;48.93;98561.19;8449065;28;20235;-67
2023/01/31 11:38:03;;;;;;;12.57;6.30;;;;;;;8.47;48.74;98559.66;8448950;28;20357;-67
2023/01/31 11:42:08;;;;;;;13.17;6.93;;;;;;;8.03;50.18;98560.75;8449187;28;20415;-66
2023/01/31 11:46:10;;;;;;;11.20;7.10;;;;;;;7.78;50.39;98555.31;8448727;28;20227;-67
2023/01/31 11:50:21;;;;;;;16.60;7.93;;;;;;;7.71;50.46;98533.16;8448650;28;20227;-66
2023/01/31 11:54:27;;;;;;;12.03;6.73;;;;;;;7.28;52.10;98541.84;8448743;28;20288;-67
2023/01/31 11:58:33;;;;;;;12.70;7.07;;;;;;;7.51;51.40;98538.75;8448386;28;20227;-66
2023/01/31 12:02:39;;;;;;;18.30;9.47;;;;;;;7.53;51.81;98531.00;8448342;28;20250;-67
2023/01/31 12:06:56;;;;;;;13.93;7.03;;;;;;;6.83;53.56;98527.34;8447457;28;20230;-67
2023/01/31 12:10:59;;;;;;;11.87;7.20;;;;;;;6.75;53.72;98513.75;8447685;28;20235;-66
2023/01/31 12:15:05;;;;;;;15.47;8.50;;;;;;;6.83;54.25;98511.91;8447328;28;20234;-66
2023/01/31 12:19:18;;;;;;;11.97;7.50;;;;;;;6.45;54.70;98523.81;8447835;28;20224;-66
2023/01/31 12:23:28;;;;;;;12.30;6.80;;;;;;;6.52;54.21;98493.63;8447521;28;20560;-67
2023/01/31 12:27:41;;;;;;;15.27;7.30;;;;;;;6.98;53.46;98515.03;8447484;28;20227;-67
2023/01/31 12:31:52;;;;;;;13.67;6.77;;;;;;;6.51;55.14;98506.53;8446872;28;20219;-67
2023/01/31 12:36:07;;;;;;;11.07;6.60;;;;;;;6.72;54.63;98510.41;8447342;28;20235;-66
2023/01/31 12:40:29;;;;;;;11.30;5.70;;;;;;;6.52;54.99;98527.09;8446952;28;20522;-67
2023/01/31 12:44:43;;;;;;;12.73;6.37;;;;;;;6.56;54.99;98507.28;8447023;28;20522;-66
2023/01/31 12:49:20;;;;;;;14.27;6.07;;;;;;;6.55;54.93;98510.72;8446213;28;20296;-66
2023/01/31 12:53:38;;;;;;;12.23;5.53;;;;;;;6.64;54.72;98537.16;8445028;28;20508;-66
2023/01/31 12:57:48;;;;;;;10.53;6.03;;;;;;;6.80;54.41;98542.84;8446202;28;20224;-66
2023/01/31 13:01:56;;;;;;;11.00;5.93;;;;;;;6.62;54.79;98548.34;8446096;28;20227;-67
2023/01/31 13:06:01;;;;;;;12.77;6.50;;;;;;;6.51;55.60;98548.56;8445907;28;20231;-67
2023/01/31 13:10:07;;;;;;;11.77;6.47;;;;;;;6.75;55.08;98543.81;8446224;28;20296;-67
2023/01/31 13:14:15;;;;;;;14.03;8.00;;;;;;;6.09;56.72;98516.72;8445957;28;20227;-67
2023/01/31 13:18:18;;;;;;;11.23;6.47;;;;;;;6.33;56.04;98511.16;8446136;28;20234;-67
2023/01/31 13:22:24;;;;;;;15.43;6.60;;;;;;;6.39;55.88;98503.31;8445495;28;20230;-67
2023/01/31 13:26:30;;;;;;;14.47;6.57;;;;;;;6.38;55.81;98469.91;8445652;28;20228;-67
2023/01/31 13:30:38;;;;;;;12.93;7.27;;;;;;;6.20;56.58;98464.22;8445777;28;20230;-67
2023/01/31 13:34:45;;;;;;;15.17;7.03;;;;;;;6.21;56.62;98424.78;8444134;28;20317;-67
2023/01/31 13:38:53;;;;;;;17.10;6.70;;;;;;;6.49;56.04;98421.63;8445069;28;20425;-67
2023/01/31 13:43:00;;;;;;;12.40;6.97;;;;;;;6.32;56.20;98414.28;8445297;28;20522;-67
2023/01/31 13:47:08;;;;;;;10.80;6.33;;;;;;;5.98;57.10;98407.22;8445179;28;20231;-67
2023/01/31 13:51:16;;;;;;;11.63;6.70;;;;;;;6.47;56.06;98400.25;8444852;28;20233;-67
2023/01/31 13:55:22;;;;;;;13.77;6.43;;;;;;;6.24;56.86;98403.28;8445238;28;20523;-67
2023/01/31 13:59:26;;;;;;;14.67;6.20;;;;;;;6.23;56.96;98399.03;8445039;28;20234;-67
2023/01/31 14:03:30;;;;;;;13.67;6.20;;;;;;;6.18;56.89;98383.69;8444679;28;20230;-67
2023/01/31 14:07:33;;;;;;;11.13;6.00;;;;;;;6.47;56.23;98374.50;8444699;28;20246;-67
2023/01/31 14:11:43;;;;;;;12.73;5.70;;;;;;;5.99;57.31;98385.75;8444659;28;20237;-67
2023/01/31 14:15:49;;;;;;;12.13;5.80;;;;;;;6.53;56.34;98401.84;8444062;28;20255;-67
2023/01/31 14:20:05;;;;;;;12.00;6.00;;;;;;;6.31;56.44;98379.16;8444593;28;20243;-67
2023/01/31 14:24:20;;;;;;;10.40;5.13;;;;;;;6.30;56.81;98379.16;8444371;28;20418;-66
2023/01/31 14:28:23;;;;;;;9.67;5.40;;;;;;;6.51;56.55;98359.84;8444573;28;20224;-67
2023/01/31 14:32:31;;;;;;;8.10;4.87;;;;;;;6.44;56.64;98354.00;8444154;28;20233;-67
2023/01/31 14:36:56;;;;;;;9.67;5.47;;;;;;;6.22;56.99;98381.91;8447794;28;20223;-67
2023/01/31 14:41:04;;;;;;;11.87;5.40;;;;;;;6.41;56.66;98377.22;8450926;28;20226;-67
2023/01/31 14:45:20;;;;;;;11.40;4.93;;;;;;;6.62;56.23;98381.06;8450654;28;20341;-67
2023/01/31 14:49:49;;;;;;;9.50;4.73;;;;;;;6.51;56.10;98383.88;8450779;28;20414;-67
2023/01/31 14:54:14;;;;;;;9.53;5.03;;;;;;;6.46;56.32;98368.53;8450517;28;20219;-66
2023/01/31 14:58:20;;;;;;;10.93;4.70;;;;;;;6.45;56.11;98351.41;8450723;28;20420;-65
2023/01/31 15:02:41;;;;;;;11.50;5.20;;;;;;;6.39;56.58;98342.97;8450462;28;20223;-66
2023/01/31 15:06:49;;;;;;;10.53;4.57;;;;;;;6.68;55.38;98338.91;8449687;28;20261;-67
2023/01/31 15:11:01;;;;;;;9.83;4.60;;;;;;;6.67;55.35;98301.19;8450353;28;20224;-67
2023/01/31 15:15:11;;;;;;;8.33;4.10;;;;;;;6.73;55.22;98345.63;8450052;28;20234;-68
2023/01/31 15:19:16;;;;;;;6.47;4.00;;;;;;;6.74;55.16;98349.91;8449927;28;20238;-68
2023/01/31 15:23:21;;;;;;;7.20;3.60;;;;;;;6.81;55.02;98360.91;8449693;28;20237;-67
2023/01/31 15:27:28;;;;;;;10.73;5.47;;;;;;;6.66;54.95;98333.78;8449538;28;20234;-68
2023/01/31 15:31:33;;;;;;;10.27;5.27;;;;;;;6.69;55.13;98332.88;8449357;28;20230;-68
2023/01/31 15:35:44;;;;;;;7.83;4.30;;;;;;;6.84;55.04;98353.13;8449041;28;20227;-68
2023/01/31 15:39:55;;;;;;;7.57;4.30;;;;;;;6.80;55.11;98351.50;8448993;28;20221;-67
2023/01/31 15:44:12;;;;;;;10.50;4.40;;;;;;;6.81;55.48;98368.63;8448840;28;20232;-67
2023/01/31 15:48:17;;;;;;;6.60;3.60;;;;;;;6.72;55.64;98363.69;8447386;28;20447;-68
2023/01/31 15:52:21;;;;;;;6.57;3.77;;;;;;;6.67;55.47;98350.94;8448134;28;20223;-68
2023/01/31 15:56:25;;;;;;;6.77;3.63;;;;;;;6.69;55.30;98354.31;8448532;28;20290;-68
2023/01/31 16:00:31;;;;;;;8.87;4.13;;;;;;;6.74;55.45;98341.34;8448225;28;20231;-68
2023/01/31 16:04:34;;;;;;;6.53;3.77;;;;;;;6.56;55.63;98340.03;8447645;28;20238;-68
2023/01/31 16:08:38;;;;;;;7.17;4.03;;;;;;;6.56;55.60;98343.44;8448383;28;20231;-67
2023/01/31 16:12:43;;;;;;;7.47;4.20;;;;;;;6.44;56.23;98346.28;8447962;28;20216;-68
2023/01/31 16:16:49;;;;;;;10.03;4.40;;;;;;;6.36;56.60;98341.31;8448278;28;20235;-67
2023/01/31 16:20:53;;;;;;;9.53;5.83;;;;;;;6.48;56.11;98329.06;8448150;28;20321;-67
2023/01/31 16:24:58;;;;;;;9.43;5.13;;;;;;;6.61;56.34;98351.06;8447692;28;20227;-67
2023/01/31 16:29:07;;;;;;;12.87;5.07;;;;;;;6.52;57.24;98343.56;8447727;28;20297;-67
2023/01/31 16:33:17;;;;;;;6.23;4.13;;;;;;;6.24;58.10;98331.28;8447291;28;20422;-67
2023/01/31 16:37:32;;;;;;;7.47;5.03;;;;;;;6.26;58.61;98345.81;8447137;28;20228;-68
2023/01/31 16:41:40;;;;;;;7.70;4.70;;;;;;;6.32;58.31;98355.13;8447296;28;20227;-67
2023/01/31 16:45:51;;;;;;;8.00;5.20;;;;;;;6.42;58.74;98350.63;8446622;28;20234;-67
2023/01/31 16:50:23;;;;;;;8.27;5.50;;;;;;;6.41;58.47;98343.78;8446682;28;20234;-66
2023/01/31 16:54:45;;;;;;;9.97;5.67;;;;;;;6.28;58.44;98329.47;8446279;28;20306;-66
2023/01/31 16:58:53;;;;;;;10.37;5.20;;;;;;;5.94;59.34;98304.44;8446095;28;20230;-66
2023/01/31 17:02:58;;;;;;;9.00;4.47;;;;;;;6.38;58.23;98300.97;8446517;28;20402;-67
2023/01/31 17:07:04;;;;;;;7.97;4.90;;;;;;;6.44;58.70;98329.13;8446040;28;20492;-67
2023/01/31 17:11:11;;;;;;;8.40;4.97;;;;;;;6.33;58.28;98331.09;8446293;28;20230;-67
2023/01/31 17:15:25;;;;;;;11.73;6.07;;;;;;;6.40;58.98;98332.66;8446006;28;20227;-67
2023/01/31 17:19:28;;;;;;;15.20;8.07;;;;;;;6.25;58.73;98332.97;8445836;28;20224;-67
2023/01/31 17:23:35;;;;;;;10.40;5.80;;;;;;;6.42;59.09;98351.47;8445824;28;20441;-67
2023/01/31 17:27:38;;;;;;;9.77;5.50;;;;;;;6.32;59.02;98334.56;8445518;28;20227;-67
2023/01/31 17:31:41;;;;;;;10.00;5.57;;;;;;;6.28;59.38;98344.91;8445561;28;20424;-67
2023/01/31 17:35:46;;;;;;;7.80;5.00;;;;;;;6.30;59.72;98362.00;8378039;28;20213;-67
2023/01/31 17:39:50;;;;;;;8.27;4.93;;;;;;;6.65;59.42;98350.97;8378269;28;20528;-67
2023/01/31 17:43:54;;;;;;;9.03;4.90;;;;;;;6.44;59.89;98359.16;8377789;28;20225;-67
2023/01/31 17:47:57;;;;;;;8.23;4.97;;;;;;;6.43;59.72;98362.59;8377173;28;20406;-67
2023/01/31 17:52:01;;;;;;;5.57;4.50;;;;;;;6.63;59.94;98357.88;8377567;28;20225;-68
2023/01/31 17:56:06;;;;;;;7.23;4.80;;;;;;;6.45;61.06;98354.00;8377519;28;20234;-68
2023/01/31 18:00:12;;;;;;;11.17;4.80;;;;;;;6.46;60.89;98337.66;8377300;28;20225;-68
2023/01/31 18:04:14;;;;;;;8.67;5.20;;;;;;;6.67;61.08;98353.50;8377483;28;20257;-67
2023/01/31 18:08:17;;;;;;;6.13;4.70;;;;;;;6.73;60.60;98355.09;8377124;28;20240;-67
2023/01/31 18:12:22;;;;;;;6.73;4.50;;;;;;;6.52;61.82;98352.13;8376482;28;20304;-67
2023/01/31 18:16:26;;;;;;;6.00;4.40;;;;;;;6.48;61.95;98359.94;8377366;28;20240;-68
2023/01/31 18:20:29;;;;;;;6.93;4.57;;;;;;;6.67;60.81;98365.53;8376993;28;20244;-68
2023/01/31 18:24:32;;;;;;;5.47;4.10;;;;;;;6.49;61.67;98348.75;8377296;28;20220;-68
2023/01/31 18:28:37;;;;;;;6.27;4.10;;;;;;;6.57;61.99;98352.88;8376347;28;20237;-69
2023/01/31 18:32:40;;;;;;;4.67;4.20;;;;;;;6.54;62.24;98340.06;8393511;28;20401;-67
2023/01/31 18:36:43;;;;;;;6.00;4.33;;;;;;;6.63;62.46;98345.00;8443149;28;20223;-68
2023/01/31 18:40:46;;;;;;;5.07;4.00;;;;;;;6.53;62.77;98350.38;8443314;28;20234;-66
2023/01/31 18:44:50;;;;;;;5.53;4.33;;;;;;;6.72;62.33;98353.38;8443226;28;20243;-67
2023/01/31 18:48:53;;;;;;;5.80;4.00;;;;;;;6.88;61.95;98351.34;8443214;28;20231;-67
2023/01/31 18:52:56;;;;;;;6.57;4.33;;;;;;;6.52;62.63;98346.13;8443067;28;20227;-66
2023/01/31 18:56:59;;;;;;;4.50;4.10;;;;;;;6.61;62.97;98358.81;8440828;28;20228;-67
2023/01/31 19:01:08;;;;;;;5.43;4.40;;;;;;;6.51;63.09;98347.00;8442757;28;20243;-68
2023/01/31 19:05:11;;;;;;;5.53;4.50;;;;;;;6.44;63.36;98339.41;8442614;28;20223;-69
2023/01/31 19:09:13;;;;;;;5.90;5.30;;;;;;;6.58;63.21;98362.25;8442214;28;20243;-67
2023/01/31 19:13:16;;;;;;;5.23;4.70;;;;;;;6.61;63.12;98343.34;8443383;28;20230;-68
2023/01/31 19:17:20;;;;;;;5.53;4.40;;;;;;;6.76;62.35;98340.44;8443444;28;20542;-67
2023/01/31 19:21:25;;;;;;;4.70;4.20;;;;;;;6.65;62.73;98350.97;8444466;28;20235;-67
2023/01/31 19:25:27;;;;;;;5.70;4.67;;;;;;;6.46;63.32;98326.53;8449126;28;20235;-68
2023/01/31 19:29:30;;;;;;;5.43;4.23;;;;;;;6.88;62.60;98361.63;8448657;28;20227;-66